createdAt,value
2023-04-02T00:02:20.784Z,6.57
2023-04-02T00:05:16.638Z,6.48
2023-04-02T00:07:44.731Z,6.58
2023-04-02T00:10:33.848Z,6.60
2023-04-02T00:13:01.978Z,6.33
2023-04-02T00:15:30.034Z,6.49
2023-04-02T00:17:57.723Z,6.57
2023-04-02T00:20:26.651Z,6.46
2023-04-02T00:22:55.150Z,6.55
2023-04-02T00:25:21.896Z,6.47
2023-04-02T00:27:48.643Z,6.37
2023-04-02T00:30:16.277Z,6.55
2023-04-02T00:32:43.220Z,6.49
2023-04-02T00:35:19.102Z,6.50
2023-04-02T00:37:46.166Z,6.47
2023-04-02T00:40:29.504Z,6.39
2023-04-02T00:42:58.723Z,6.36
2023-04-02T00:45:29.144Z,6.49
2023-04-02T00:48:00.779Z,6.39
2023-04-02T00:50:34.513Z,6.38
2023-04-02T00:53:05.080Z,6.31
2023-04-02T00:55:41.697Z,6.17
2023-04-02T00:58:27.254Z,6.23
2023-04-02T01:00:54.064Z,6.16
2023-04-02T01:03:22.837Z,6.07
2023-04-02T01:06:10.833Z,6.15
2023-04-02T01:08:52.726Z,6.11
2023-04-02T01:11:34.325Z,5.89
2023-04-02T01:14:16.725Z,6.05
2023-04-02T01:16:54.166Z,6.00
2023-04-02T01:19:42.483Z,5.83
2023-04-02T01:22:19.680Z,5.67
2023-04-02T01:24:46.361Z,5.78
2023-04-02T01:27:29.560Z,5.88
2023-04-02T01:29:58.277Z,6.00
2023-04-02T01:32:27.793Z,5.90
2023-04-02T01:34:54.748Z,5.88
2023-04-02T01:37:52.683Z,5.85
2023-04-02T01:40:26.127Z,5.83
2023-04-02T01:43:22.443Z,5.92
2023-04-02T01:45:49.951Z,5.92
2023-04-02T01:48:19.939Z,5.87
2023-04-02T01:50:49.831Z,5.92
2023-04-02T01:53:18.050Z,5.98
2023-04-02T01:55:48.729Z,6.03
2023-04-02T01:58:19.947Z,5.99
2023-04-02T02:00:51.423Z,5.90
2023-04-02T02:03:19.153Z,6.08
2023-04-02T02:05:46.622Z,5.93
2023-04-02T02:08:31.012Z,5.74
2023-04-02T02:10:58.721Z,5.78
2023-04-02T02:13:25.473Z,5.67
2023-04-02T02:15:52.281Z,5.81
2023-04-02T02:18:23.262Z,5.90
2023-04-02T02:20:51.664Z,5.86
2023-04-02T02:23:19.159Z,5.71
2023-04-02T02:25:46.492Z,5.76
2023-04-02T02:28:23.653Z,5.72
2023-04-02T02:30:58.780Z,5.75
2023-04-02T02:33:32.836Z,5.68
2023-04-02T02:36:06.150Z,5.58
2023-04-02T02:38:54.858Z,5.60
2023-04-02T02:41:27.719Z,5.62
2023-04-02T02:44:27.382Z,5.70
2023-04-02T02:47:09.396Z,5.67
2023-04-02T02:50:11.387Z,5.71
2023-04-02T02:52:38.857Z,5.63
2023-04-02T02:55:07.168Z,5.65
2023-04-02T02:57:37.373Z,5.64
2023-04-02T03:00:06.811Z,5.70
2023-04-02T03:02:36.514Z,5.53
2023-04-02T03:05:05.277Z,5.53
2023-04-02T03:07:31.999Z,5.58
2023-04-02T03:10:07.210Z,5.59
2023-04-02T03:12:53.915Z,5.49
2023-04-02T03:15:35.151Z,5.60
2023-04-02T03:18:15.028Z,5.66
2023-04-02T03:20:46.901Z,5.57
2023-04-02T03:23:20.541Z,5.47
2023-04-02T03:26:12.860Z,5.62
2023-04-02T03:28:42.787Z,5.68
2023-04-02T03:31:15.965Z,5.65
2023-04-02T03:33:46.270Z,5.58
2023-04-02T03:36:34.825Z,5.60
2023-04-02T03:39:16.045Z,5.38
2023-04-02T03:41:51.893Z,5.48
2023-04-02T03:44:29.086Z,5.40
2023-04-02T03:46:58.535Z,5.46
2023-04-02T03:49:36.751Z,5.53
2023-04-02T03:52:09.201Z,5.37
2023-04-02T03:54:36.471Z,5.34
2023-04-02T03:57:04.254Z,5.35
2023-04-02T03:59:45.291Z,5.30
2023-04-02T04:02:27.689Z,5.27
2023-04-02T04:04:55.759Z,5.16
2023-04-02T04:07:31.706Z,5.36
2023-04-02T04:09:59.282Z,5.24
2023-04-02T04:12:30.708Z,4.95
2023-04-02T04:15:09.063Z,4.95
2023-04-02T04:17:54.058Z,5.04
2023-04-02T04:20:24.775Z,5.10
2023-04-02T04:22:55.804Z,5.01
2023-04-02T04:25:30.457Z,5.06
2023-04-02T04:28:24.394Z,5.10
2023-04-02T04:31:04.459Z,5.01
2023-04-02T04:33:39.950Z,4.98
2023-04-02T04:36:19.268Z,4.96
2023-04-02T04:38:49.225Z,4.96
2023-04-02T04:41:24.807Z,5.03
2023-04-02T04:44:16.203Z,5.07
2023-04-02T04:46:47.130Z,5.03
2023-04-02T04:49:24.308Z,5.02
2023-04-02T04:51:57.532Z,4.92
2023-04-02T04:54:26.824Z,5.06
2023-04-02T04:56:59.918Z,5.17
2023-04-02T04:59:27.453Z,5.07
2023-04-02T05:01:57.351Z,5.15
2023-04-02T05:04:41.094Z,4.88
2023-04-02T05:07:17.627Z,5.02
2023-04-02T05:10:03.772Z,5.06
2023-04-02T05:12:43.636Z,4.98
2023-04-02T05:15:17.371Z,5.09
2023-04-02T05:17:54.052Z,5.07
2023-04-02T05:20:41.844Z,4.87
2023-04-02T05:23:21.977Z,4.86
2023-04-02T05:26:11.695Z,4.71
2023-04-02T05:28:42.613Z,4.63
2023-04-02T05:31:20.535Z,4.60
2023-04-02T05:33:48.576Z,4.57
2023-04-02T05:36:26.455Z,4.70
2023-04-02T05:38:53.982Z,4.71
2023-04-02T05:41:36.580Z,4.66
2023-04-02T05:44:07.379Z,4.73
2023-04-02T05:46:43.918Z,4.58
2023-04-02T05:49:21.435Z,4.59
2023-04-02T05:51:50.885Z,4.53
2023-04-02T05:54:26.332Z,4.72
2023-04-02T05:57:17.523Z,4.68
2023-04-02T05:59:48.035Z,4.64
2023-04-02T06:02:23.042Z,4.64
2023-04-02T06:05:13.038Z,4.66
2023-04-02T06:07:48.180Z,4.64
2023-04-02T06:10:24.637Z,4.74
2023-04-02T06:13:04.941Z,4.82
2023-04-02T06:15:33.126Z,4.65
2023-04-02T06:18:06.336Z,4.69
2023-04-02T06:20:33.206Z,4.61
2023-04-02T06:23:05.100Z,4.62
2023-04-02T06:25:36.353Z,4.64
2023-04-02T06:28:05.654Z,4.63
2023-04-02T06:30:35.086Z,4.46
2023-04-02T06:33:01.914Z,4.41
2023-04-02T06:35:28.481Z,4.35
2023-04-02T06:37:57.417Z,4.25
2023-04-02T06:40:44.734Z,4.25
2023-04-02T06:43:22.334Z,4.32
2023-04-02T06:45:52.140Z,4.22
2023-04-02T06:48:20.901Z,4.15
2023-04-02T06:50:51.487Z,4.25
2023-04-02T06:53:32.107Z,4.20
2023-04-02T06:56:07.786Z,4.15
2023-04-02T06:58:34.347Z,4.11
2023-04-02T07:01:00.925Z,4.07
2023-04-02T07:03:29.551Z,4.15
2023-04-02T07:05:57.108Z,4.18
2023-04-02T07:08:23.985Z,4.33
2023-04-02T07:10:50.745Z,4.24
2023-04-02T07:13:20.322Z,4.21
2023-04-02T07:15:56.585Z,4.26
2023-04-02T07:18:28.155Z,4.37
2023-04-02T07:20:55.280Z,4.33
2023-04-02T07:23:22.039Z,4.28
2023-04-02T07:25:49.678Z,4.07
2023-04-02T07:28:16.833Z,4.02
2023-04-02T07:30:44.110Z,4.24
2023-04-02T07:33:14.178Z,4.16
2023-04-02T07:35:41.204Z,4.16
2023-04-02T07:38:07.824Z,4.25
2023-04-02T07:40:34.699Z,4.25
2023-04-02T07:43:01.494Z,4.11
2023-04-02T07:45:28.061Z,3.91
2023-04-02T07:47:54.842Z,3.99
2023-04-02T07:50:21.597Z,4.02
2023-04-02T07:52:48.367Z,3.96
2023-04-02T07:55:16.212Z,3.97
2023-04-02T07:57:54.678Z,4.09
2023-04-02T08:00:22.608Z,3.79
2023-04-02T08:02:49.804Z,3.76
2023-04-02T08:05:16.977Z,3.87
2023-04-02T08:07:43.660Z,4.05
2023-04-02T08:10:11.710Z,3.93
2023-04-02T08:12:38.637Z,4.00
2023-04-02T08:15:08.513Z,3.90
2023-04-02T08:17:35.248Z,3.80
2023-04-02T08:20:02.058Z,3.89
2023-04-02T08:22:29.626Z,3.99
2023-04-02T08:24:56.892Z,4.01
2023-04-02T08:27:24.936Z,4.12
2023-04-02T08:29:51.714Z,4.06
2023-04-02T08:32:18.517Z,3.99
2023-04-02T08:34:45.412Z,4.18
2023-04-02T08:37:12.632Z,4.11
2023-04-02T08:39:39.399Z,4.00
2023-04-02T08:42:19.228Z,4.03
2023-04-02T08:45:24.382Z,4.07
2023-04-02T08:47:55.373Z,4.08
2023-04-02T08:50:31.003Z,4.09
2023-04-02T08:52:59.351Z,4.08
2023-04-02T08:55:38.004Z,4.12
2023-04-02T08:58:25.492Z,4.19
2023-04-02T09:00:54.899Z,4.22
2023-04-02T09:03:31.594Z,4.22
2023-04-02T09:05:59.841Z,4.20
2023-04-02T09:08:27.300Z,4.05
2023-04-02T09:11:11.833Z,4.08
2023-04-02T09:13:43.072Z,4.28
2023-04-02T09:16:18.488Z,4.37
2023-04-02T09:18:45.628Z,4.39
2023-04-02T09:21:21.333Z,4.30
2023-04-02T09:23:49.697Z,4.44
2023-04-02T09:26:28.962Z,4.48
2023-04-02T09:29:14.068Z,4.59
2023-04-02T09:31:45.304Z,4.58
2023-04-02T09:34:29.732Z,4.58
2023-04-02T09:36:57.038Z,4.70
2023-04-02T09:39:26.422Z,4.74
2023-04-02T09:42:04.994Z,4.73
2023-04-02T09:44:33.622Z,4.61
2023-04-02T09:47:05.953Z,4.82
2023-04-02T09:49:34.983Z,4.38
2023-04-02T09:52:28.064Z,4.53
2023-04-02T09:55:18.738Z,4.69
2023-04-02T09:57:46.707Z,4.79
2023-04-02T10:00:30.442Z,4.64
2023-04-02T10:03:07.172Z,4.64
2023-04-02T10:05:40.126Z,4.73
2023-04-02T10:08:14.793Z,4.69
2023-04-02T10:10:44.694Z,4.36
2023-04-02T10:13:19.291Z,4.29
2023-04-02T10:16:00.500Z,4.53
2023-04-02T10:18:47.993Z,4.57
2023-04-02T10:21:21.824Z,4.54
2023-04-02T10:23:48.418Z,4.46
2023-04-02T10:26:39.476Z,4.43
2023-04-02T10:29:24.015Z,4.35
2023-04-02T10:32:15.886Z,4.22
2023-04-02T10:34:51.152Z,4.09
2023-04-02T10:37:42.663Z,4.20
2023-04-02T10:40:12.790Z,4.06
2023-04-02T10:42:55.100Z,4.15
2023-04-02T10:45:37.007Z,4.20
2023-04-02T10:48:33.056Z,4.31
2023-04-02T10:51:04.731Z,4.06
2023-04-02T10:53:59.216Z,4.14
2023-04-02T10:56:28.569Z,4.19
2023-04-02T10:59:01.364Z,4.34
2023-04-02T11:01:30.473Z,4.28
2023-04-02T11:04:14.373Z,4.37
2023-04-02T11:06:47.507Z,4.41
2023-04-02T11:09:20.441Z,4.38
2023-04-02T11:11:49.210Z,4.27
2023-04-02T11:14:21.200Z,4.24
2023-04-02T11:16:51.552Z,4.17
2023-04-02T11:19:18.037Z,4.17
2023-04-02T11:21:57.772Z,4.08
2023-04-02T11:24:32.752Z,4.03
2023-04-02T11:27:04.774Z,4.09
2023-04-02T11:29:32.638Z,4.00
2023-04-02T11:32:20.715Z,4.10
2023-04-02T11:34:53.713Z,4.12
2023-04-02T11:37:38.589Z,4.22
2023-04-02T11:40:11.185Z,4.32
2023-04-02T11:42:40.517Z,4.27
2023-04-02T11:45:23.100Z,4.27
2023-04-02T11:48:15.681Z,4.18
2023-04-02T11:50:46.231Z,4.25
2023-04-02T11:53:13.112Z,4.30
2023-04-02T11:55:41.361Z,4.24
2023-04-02T11:58:27.527Z,4.32
2023-04-02T12:01:18.518Z,4.18
2023-04-02T12:04:09.946Z,4.17
2023-04-02T12:06:54.974Z,4.30
2023-04-02T12:09:23.566Z,4.30
2023-04-02T12:11:52.223Z,4.33
2023-04-02T12:14:43.575Z,4.34
2023-04-02T12:17:30.282Z,4.48
2023-04-02T12:20:08.415Z,4.38
2023-04-02T12:22:47.631Z,4.23
2023-04-02T12:25:30.015Z,4.05
2023-04-02T12:28:09.367Z,4.15
2023-04-02T12:30:37.797Z,3.95
2023-04-02T12:33:30.689Z,4.03
2023-04-02T12:35:59.318Z,3.95
2023-04-02T12:38:31.218Z,3.97
2023-04-02T12:41:05.030Z,3.95
2023-04-02T12:43:34.083Z,3.97
2023-04-02T12:46:10.311Z,4.01
2023-04-02T12:48:37.679Z,4.09
2023-04-02T12:51:05.090Z,4.25
2023-04-02T12:53:37.235Z,4.20
2023-04-02T12:56:05.845Z,4.24
2023-04-02T12:58:37.721Z,4.27
2023-04-02T13:01:31.933Z,4.26
2023-04-02T13:04:07.661Z,4.21
2023-04-02T13:06:37.542Z,4.18
2023-04-02T13:09:06.663Z,4.13
2023-04-02T13:11:39.209Z,4.16
2023-04-02T13:14:17.221Z,4.13
2023-04-02T13:16:43.723Z,4.26
2023-04-02T13:19:10.350Z,4.22
2023-04-02T13:21:36.877Z,4.39
2023-04-02T13:24:10.630Z,4.47
2023-04-02T13:26:37.101Z,4.39
2023-04-02T13:29:13.894Z,4.57
2023-04-02T13:31:40.557Z,4.51
2023-04-02T13:34:07.088Z,4.23
2023-04-02T13:36:33.659Z,4.31
2023-04-02T13:39:00.776Z,4.27
2023-04-02T13:41:32.380Z,4.25
2023-04-02T13:44:01.496Z,4.29
2023-04-02T13:46:30.287Z,4.47
2023-04-02T13:48:58.280Z,4.27
2023-04-02T13:51:35.974Z,4.14
2023-04-02T13:54:04.263Z,4.10
2023-04-02T13:56:31.131Z,3.92
2023-04-02T13:58:57.684Z,4.05
2023-04-02T14:01:25.355Z,4.00
2023-04-02T14:03:53.567Z,4.05
2023-04-02T14:06:39.119Z,4.03
2023-04-02T14:09:45.665Z,3.88
2023-04-02T14:12:35.045Z,3.90
2023-04-02T14:15:11.086Z,3.67
2023-04-02T14:18:19.206Z,3.60
2023-04-02T14:21:32.317Z,3.73
2023-04-02T14:24:01.569Z,3.74
2023-04-02T14:26:32.533Z,3.60
2023-04-02T14:29:22.740Z,3.59
2023-04-02T14:32:01.590Z,3.64
2023-04-02T14:34:56.509Z,3.55
2023-04-02T14:37:22.943Z,3.27
2023-04-02T14:39:57.474Z,3.21
2023-04-02T14:42:32.771Z,3.16
2023-04-02T14:45:05.617Z,3.22
2023-04-02T14:47:43.306Z,3.21
2023-04-02T14:50:17.315Z,3.36
2023-04-02T14:52:46.103Z,3.35
2023-04-02T14:55:35.095Z,3.30
2023-04-02T14:58:04.651Z,3.07
2023-04-02T15:00:55.875Z,3.16
2023-04-02T15:03:29.030Z,2.96
2023-04-02T15:06:05.417Z,2.87
2023-04-02T15:08:58.584Z,2.94
2023-04-02T15:11:43.840Z,2.80
2023-04-02T15:14:22.554Z,2.82
2023-04-02T15:16:49.176Z,2.71
2023-04-02T15:19:17.893Z,2.74
2023-04-02T15:22:10.517Z,2.61
2023-04-02T15:25:01.952Z,2.64
2023-04-02T15:27:37.629Z,2.62
2023-04-02T15:30:09.262Z,2.57
2023-04-02T15:32:39.003Z,2.58
2023-04-02T15:35:05.851Z,2.58
2023-04-02T15:38:00.906Z,2.61
2023-04-02T15:40:46.175Z,2.33
2023-04-02T15:44:12.084Z,2.44
2023-04-02T15:46:53.544Z,2.48
2023-04-02T15:49:41.146Z,2.50
2023-04-02T15:52:22.606Z,2.40
2023-04-02T15:55:14.531Z,2.54
2023-04-02T15:57:54.655Z,2.48
2023-04-02T16:00:46.467Z,2.44
2023-04-02T16:03:24.347Z,2.25
2023-04-02T16:06:17.309Z,2.27
2023-04-02T16:09:06.547Z,2.25
2023-04-02T16:11:34.469Z,2.22
2023-04-02T16:14:24.419Z,2.25
2023-04-02T16:16:54.069Z,2.20
2023-04-02T16:19:29.606Z,2.23
2023-04-02T16:22:11.587Z,2.05
2023-04-02T16:24:38.310Z,2.06
2023-04-02T16:27:24.808Z,1.98
2023-04-02T16:30:17.840Z,2.02
2023-04-02T16:33:04.147Z,2.04
2023-04-02T16:35:43.932Z,2.02
2023-04-02T16:38:29.334Z,2.11
2023-04-02T16:41:15.675Z,2.10
2023-04-02T16:43:53.601Z,1.96
2023-04-02T16:47:02.011Z,2.06
2023-04-02T16:49:54.706Z,2.02
2023-04-02T16:52:24.596Z,2.19
2023-04-02T16:55:04.754Z,1.96
2023-04-02T16:58:05.028Z,2.10
2023-04-02T17:00:51.953Z,2.04
2023-04-02T17:03:40.432Z,2.08
2023-04-02T17:06:14.343Z,2.08
2023-04-02T17:09:09.686Z,1.97
2023-04-02T17:11:49.291Z,2.05
2023-04-02T17:14:29.782Z,2.14
2023-04-02T17:17:01.446Z,2.20
2023-04-02T17:19:29.952Z,2.26
2023-04-02T17:22:00.596Z,2.42
2023-04-02T17:24:30.420Z,2.32
2023-04-02T17:27:01.007Z,2.51
2023-04-02T17:29:42.391Z,2.48
2023-04-02T17:32:21.674Z,2.50
2023-04-02T17:34:48.421Z,2.62
2023-04-02T17:37:22.840Z,2.64
2023-04-02T17:40:28.698Z,2.59
2023-04-02T17:43:16.803Z,2.60
2023-04-02T17:45:46.596Z,2.62
2023-04-02T17:48:28.319Z,2.44
2023-04-02T17:51:13.617Z,2.46
2023-04-02T17:53:49.085Z,2.49
2023-04-02T17:56:31.195Z,2.52
2023-04-02T17:59:23.864Z,2.62
2023-04-02T18:02:18.160Z,2.53
2023-04-02T18:05:13.132Z,2.55
2023-04-02T18:07:45.631Z,2.52
2023-04-02T18:10:22.955Z,2.54
2023-04-02T18:13:03.725Z,2.57
2023-04-02T18:15:46.410Z,2.70
2023-04-02T18:18:19.309Z,2.80
2023-04-02T18:20:53.791Z,2.74
2023-04-02T18:23:39.524Z,2.76
2023-04-02T18:26:36.548Z,2.76
2023-04-02T18:29:23.498Z,2.74
2023-04-02T18:32:11.288Z,2.79
2023-04-02T18:35:16.134Z,2.79
2023-04-02T18:38:26.866Z,2.71
2023-04-02T18:41:05.142Z,2.75
2023-04-02T18:43:37.955Z,2.76
2023-04-02T18:46:16.915Z,2.85
2023-04-02T18:48:50.707Z,2.88
2023-04-02T18:51:25.117Z,2.91
2023-04-02T18:53:56.794Z,2.85
2023-04-02T18:56:24.504Z,2.87
2023-04-02T18:58:57.166Z,2.90
2023-04-02T19:01:43.883Z,2.67
2023-04-02T19:04:15.974Z,2.85
2023-04-02T19:06:44.936Z,2.93
2023-04-02T19:09:43.105Z,2.95
2023-04-02T19:12:19.129Z,3.02
2023-04-02T19:14:50.129Z,2.99
2023-04-02T19:17:22.418Z,3.06
2023-04-02T19:19:52.120Z,3.05
2023-04-02T19:22:49.265Z,3.08
2023-04-02T19:25:34.171Z,2.91
2023-04-02T19:28:29.313Z,2.91
2023-04-02T19:31:05.464Z,3.05
2023-04-02T19:33:45.110Z,2.92
2023-04-02T19:36:49.315Z,2.85
2023-04-02T19:39:52.005Z,2.81
2023-04-02T19:42:29.058Z,2.86
2023-04-02T19:44:55.806Z,2.95
2023-04-02T19:47:24.371Z,2.98
2023-04-02T19:49:51.149Z,2.97
2023-04-02T19:52:17.659Z,2.86
2023-04-02T19:54:44.204Z,2.87
2023-04-02T19:57:14.963Z,2.90
2023-04-02T19:59:41.766Z,2.93
2023-04-02T20:02:10.581Z,2.91
2023-04-02T20:04:37.288Z,2.91
2023-04-02T20:07:04.516Z,2.92
2023-04-02T20:09:31.040Z,2.91
2023-04-02T20:11:57.605Z,2.98
2023-04-02T20:14:24.087Z,2.88
2023-04-02T20:16:50.676Z,2.77
2023-04-02T20:19:17.314Z,2.82
2023-04-02T20:21:44.090Z,2.83
2023-04-02T20:24:10.664Z,2.89
2023-04-02T20:26:37.410Z,2.91
2023-04-02T20:29:04.816Z,2.97
2023-04-02T20:31:31.517Z,2.93
2023-04-02T20:33:59.086Z,2.91
2023-04-02T20:36:25.895Z,2.91
2023-04-02T20:38:52.559Z,2.79
2023-04-02T20:41:19.573Z,2.80
2023-04-02T20:43:46.163Z,2.89
2023-04-02T20:46:12.936Z,2.90
2023-04-02T20:48:40.182Z,2.83
2023-04-02T20:51:08.157Z,2.83
2023-04-02T20:53:35.915Z,2.80
2023-04-02T20:56:11.638Z,2.76
2023-04-02T20:58:38.844Z,2.78
2023-04-02T21:01:13.214Z,2.82
2023-04-02T21:03:40.140Z,2.91
2023-04-02T21:06:13.159Z,2.70
2023-04-02T21:08:39.700Z,2.68
2023-04-02T21:11:07.057Z,2.83
2023-04-02T21:13:36.163Z,2.85
2023-04-02T21:16:05.813Z,2.79
2023-04-02T21:18:32.523Z,2.77
2023-04-02T21:21:04.516Z,2.67
2023-04-02T21:23:31.719Z,2.75
2023-04-02T21:26:06.052Z,2.75
2023-04-02T21:28:33.690Z,2.70
2023-04-02T21:31:13.182Z,2.76
2023-04-02T21:33:42.109Z,2.67
2023-04-02T21:36:11.896Z,2.77
2023-04-02T21:38:52.564Z,2.76
2023-04-02T21:41:40.711Z,2.78
2023-04-02T21:44:08.569Z,2.84
2023-04-02T21:46:38.619Z,2.78
2023-04-02T21:49:07.849Z,2.68
2023-04-02T21:51:35.961Z,2.57
2023-04-02T21:54:04.422Z,2.63
2023-04-02T21:56:34.385Z,2.61
2023-04-02T21:59:03.501Z,2.62
2023-04-02T22:01:32.886Z,2.57
2023-04-02T22:04:03.264Z,2.64
2023-04-02T22:06:31.905Z,2.67
2023-04-02T22:09:00.604Z,2.63
2023-04-02T22:11:30.557Z,2.62
2023-04-02T22:13:57.535Z,2.56
2023-04-02T22:16:29.017Z,2.63
2023-04-02T22:18:57.410Z,2.56
2023-04-02T22:21:25.479Z,2.54
2023-04-02T22:23:52.633Z,2.60
2023-04-02T22:26:20.742Z,2.46
2023-04-02T22:28:47.329Z,2.40
2023-04-02T22:31:16.394Z,2.46
2023-04-02T22:33:44.340Z,2.44
2023-04-02T22:36:11.127Z,2.45
2023-04-02T22:38:38.097Z,2.44
2023-04-02T22:41:13.043Z,2.30
2023-04-02T22:43:41.080Z,2.52
2023-04-02T22:46:09.324Z,2.38
2023-04-02T22:48:36.346Z,2.33
2023-04-02T22:51:04.348Z,2.34
2023-04-02T22:53:31.177Z,2.33
2023-04-02T22:56:08.712Z,2.33
2023-04-02T22:58:35.841Z,2.28
2023-04-02T23:01:07.242Z,2.32
2023-04-02T23:03:34.049Z,2.16
2023-04-02T23:06:03.266Z,2.12
2023-04-02T23:08:29.800Z,2.02
2023-04-02T23:11:01.314Z,1.94
2023-04-02T23:13:28.068Z,1.97
2023-04-02T23:15:54.742Z,1.98
2023-04-02T23:18:21.429Z,1.81
2023-04-02T23:20:47.943Z,1.87
2023-04-02T23:23:14.421Z,1.78
2023-04-02T23:25:41.349Z,1.79
2023-04-02T23:28:08.068Z,1.76
2023-04-02T23:30:34.815Z,1.61
2023-04-02T23:33:03.478Z,1.71
2023-04-02T23:35:31.135Z,1.61
2023-04-02T23:37:57.655Z,1.70
2023-04-02T23:40:24.205Z,1.61
2023-04-02T23:42:50.795Z,1.57
2023-04-02T23:45:17.586Z,1.58
2023-04-02T23:47:44.133Z,1.68
2023-04-02T23:50:10.948Z,1.60
2023-04-02T23:52:37.548Z,1.53
2023-04-02T23:55:04.654Z,1.41
2023-04-02T23:57:31.361Z,1.39
2023-04-02T23:59:57.992Z,1.40
